Chocha Airport


Codes: FLCC/
Name: Chocha Airport
City: Chocha
Country: Zambia
Elevation: 3270 ft.

Photos at Chocha Airport


   Photos courtesy of SpottingLog. You can add your own sightings and photos by signing up for a free trial today.



No photos found.

Weather at Chocha Airport


Time (UTC)DescriptionTempratureWindCloud coverageVisibilityPressureHumidity
25-Jun-2024 21:00Clear Sky18°C2 mph, E0%10000m1017hPa61%
26-Jun-2024 00:00Clear Sky18°C2 mph, N0%10000m1017hPa62%
26-Jun-2024 03:00Clear Sky17°C2 mph, E0%10000m1017hPa65%
26-Jun-2024 06:00Clear Sky19°C4 mph, SE0%10000m1019hPa57%
26-Jun-2024 09:00Clear Sky23°C4 mph, E0%10000m1018hPa43%
26-Jun-2024 12:00Clear Sky26°C2 mph, SE2%10000m1013hPa35%
26-Jun-2024 15:00Clear Sky26°C2 mph, NE3%10000m1012hPa37%
26-Jun-2024 18:00Clear Sky21°C4 mph, NE1%10000m1015hPa45%
26-Jun-2024 21:00Clear Sky19°C0 mph, E0%10000m1017hPa52%
27-Jun-2024 00:00Clear Sky17°C2 mph, E0%10000m1016hPa56%
27-Jun-2024 03:00Clear Sky16°C2 mph, E3%10000m1017hPa64%
27-Jun-2024 06:00Clear Sky19°C2 mph, NE2%10000m1019hPa54%
27-Jun-2024 09:00Few Clouds24°C4 mph, E12%10000m1017hPa41%
27-Jun-2024 12:00Few Clouds26°C4 mph, E12%10000m1014hPa34%
27-Jun-2024 15:00Clear Sky27°C2 mph, NE10%10000m1012hPa36%
27-Jun-2024 18:00Few Clouds22°C2 mph, NE20%10000m1015hPa44%
27-Jun-2024 21:00Few Clouds20°C2 mph, SE22%10000m1017hPa52%
28-Jun-2024 00:00Scattered Clouds18°C2 mph, NE44%10000m1016hPa54%
28-Jun-2024 03:00Scattered Clouds17°C2 mph, NE28%10000m1017hPa61%
28-Jun-2024 06:00Few Clouds19°C2 mph, NE23%10000m1019hPa54%
28-Jun-2024 09:00Few Clouds23°C4 mph, SE13%10000m1017hPa46%
28-Jun-2024 12:00Few Clouds26°C2 mph, S18%10000m1013hPa35%
28-Jun-2024 15:00Overcast Clouds26°C2 mph, W99%10000m1012hPa42%
28-Jun-2024 18:00Overcast Clouds22°C2 mph, N99%10000m1014hPa49%
28-Jun-2024 21:00Overcast Clouds19°C2 mph, N93%10000m1016hPa53%
29-Jun-2024 00:00Broken Clouds18°C2 mph, NW77%10000m1015hPa56%
29-Jun-2024 03:00Overcast Clouds17°C4 mph, SE88%10000m1016hPa62%
29-Jun-2024 06:00Overcast Clouds19°C2 mph, NE92%10000m1018hPa55%
29-Jun-2024 09:00Overcast Clouds23°C4 mph, SE89%10000m1017hPa44%
29-Jun-2024 12:00Broken Clouds26°C4 mph, S80%10000m1013hPa38%
29-Jun-2024 15:00Overcast Clouds26°C2 mph, S98%10000m1012hPa43%
29-Jun-2024 18:00Overcast Clouds22°C4 mph, NW93%10000m1014hPa50%
29-Jun-2024 21:00Broken Clouds20°C2 mph, S60%10000m1015hPa56%
30-Jun-2024 00:00Scattered Clouds18°C2 mph, NW49%10000m1015hPa59%
30-Jun-2024 03:00Broken Clouds18°C2 mph, SW70%10000m1016hPa58%
30-Jun-2024 06:00Overcast Clouds20°C4 mph, S85%10000m1018hPa55%
30-Jun-2024 09:00Broken Clouds24°C2 mph, SE84%10000m1017hPa42%
30-Jun-2024 12:00Overcast Clouds27°C2 mph, SW90%10000m1012hPa35%
30-Jun-2024 15:00Scattered Clouds26°C2 mph, SE43%10000m1011hPa39%
30-Jun-2024 18:00Scattered Clouds22°C2 mph, NW37%10000m1014hPa48%